Metar Aviation Weather Data KORD

57°F Temp
57°F Dewpoint
% Humidity
Temperature
8 MPH
13 KM/H
7 KTS
340°
North North
West

Wind Speed
Misty
Conditions
Pressure 1008.42 (hPa) - 29.78 (in)
Visibility 0.7 (mi) - 1 (km)

Current Conditions
KORD
Metar :KORD 161300Z 34007KT 3/4SM R10L/3000VP6000FT BR OVC002 14/14 A2978 RMK AO2 T01440144 $
Sun 16th June 08:00 am

  Metar Aviation API Data Provided by https://www.checkwx.com/ PHP scripts by weather34.com ©2019